Naran Bulag, China
Current Conditions -  °F | °C
As of 11:00 PM on Thursday 18 Dec 2014 (Local Time) from ZBHH Reporting Station
Clear Clear  
Wind Chill:   Ceiling: Unl
Heat Index: 18°   Visibility: 6mi
Dew Point:   Wind: 7mph
Humidity: 45%   Direction: 350°N
Pressure: 30.18"   Gusts: NA
Location:  44.62°N, 114.15°E
Report Text: ZBHH 181500Z 35003MPS CAVOK M08/M18 Q1022 NOSIG
Loading
Personal Weather Stations






























Interactive Weather Map New forecast layout! Learn more

10-Day Weather Forecast

Advertisements
Track Severe Weather on mobile